createdAt,value
2023-03-06T16:12:13.518Z,5.60
2023-03-06T16:15:28.920Z,5.07
2023-03-06T16:18:31.518Z,5.57
2023-03-06T16:21:33.202Z,5.33
2023-03-06T16:24:35.065Z,5.97
2023-03-06T16:27:36.983Z,5.20
2023-03-06T16:30:38.882Z,4.97
2023-03-06T16:33:41.568Z,4.97
2023-03-06T16:36:43.341Z,4.70
2023-03-06T16:39:45.003Z,5.20
2023-03-06T16:42:47.021Z,5.57
2023-03-06T16:45:48.808Z,6.77
2023-03-06T16:48:50.927Z,6.13
2023-03-06T16:51:53.764Z,5.47
2023-03-06T16:54:55.708Z,6.60
2023-03-06T16:57:57.505Z,6.27
2023-03-06T17:01:00.378Z,5.70
2023-03-06T17:04:02.597Z,5.77
2023-03-06T17:07:04.628Z,5.00
2023-03-06T17:10:09.458Z,4.43
2023-03-06T17:13:11.940Z,4.40
2023-03-06T17:16:16.361Z,4.50
2023-03-06T17:19:18.199Z,4.20
2023-03-06T17:22:20.449Z,4.10
2023-03-06T17:25:22.449Z,4.40
2023-03-06T17:28:24.110Z,4.80
2023-03-06T17:31:27.522Z,5.53
2023-03-06T17:34:30.001Z,5.47
2023-03-06T17:37:32.019Z,5.30
2023-03-06T17:40:33.906Z,5.17
2023-03-06T17:43:36.522Z,5.00
2023-03-06T17:46:52.592Z,5.37
2023-03-06T17:49:54.240Z,7.40
2023-03-06T17:52:55.881Z,7.83
2023-03-06T17:56:00.203Z,7.03
2023-03-06T17:59:01.920Z,7.03
2023-03-06T18:02:03.844Z,6.50
2023-03-06T18:05:06.167Z,6.80
2023-03-06T18:08:10.212Z,7.83
2023-03-06T18:11:12.854Z,8.10
2023-03-06T18:14:14.574Z,6.53
2023-03-06T18:17:16.404Z,5.67
2023-03-06T18:20:18.104Z,7.07
2023-03-06T18:23:19.849Z,6.63
2023-03-06T18:26:27.853Z,7.27
2023-03-06T18:29:29.660Z,7.77
2023-03-06T18:32:31.437Z,8.40
2023-03-06T18:35:33.992Z,6.90
2023-03-06T18:38:35.805Z,7.90
2023-03-06T18:41:37.869Z,9.07
2023-03-06T18:44:39.765Z,9.83
2023-03-06T18:47:41.480Z,10.30
2023-03-06T18:50:43.114Z,11.00
2023-03-06T18:53:45.014Z,10.83
2023-03-06T18:56:46.747Z,11.30
2023-03-06T18:59:48.412Z,11.33
2023-03-06T19:02:50.071Z,13.53
2023-03-06T19:05:51.996Z,18.73
2023-03-06T19:08:58.621Z,14.90
2023-03-06T19:12:03.143Z,13.57
2023-03-06T19:15:05.180Z,14.60
2023-03-06T19:18:06.866Z,13.10
2023-03-06T19:21:10.720Z,13.73
2023-03-06T19:24:15.253Z,13.73
2023-03-06T19:27:16.979Z,13.90
2023-03-06T19:30:18.970Z,15.30
2023-03-06T19:33:20.682Z,15.07
2023-03-06T19:36:26.677Z,14.80
2023-03-06T19:39:28.361Z,14.17
2023-03-06T19:42:31.051Z,14.27
2023-03-06T19:45:32.849Z,13.73
2023-03-06T19:48:34.641Z,13.60
2023-03-06T19:51:37.100Z,14.53
2023-03-06T19:54:39.158Z,14.93
2023-03-06T19:57:41.096Z,15.60
2023-03-06T20:00:42.886Z,15.37
2023-03-06T20:03:44.784Z,15.20
2023-03-06T20:06:50.230Z,15.20
2023-03-06T20:09:52.287Z,15.17
2023-03-06T20:12:54.060Z,15.73
2023-03-06T20:15:55.865Z,15.50
2023-03-06T20:19:00.144Z,15.60
2023-03-06T20:22:01.843Z,14.77
2023-03-06T20:25:03.780Z,15.30
2023-03-06T20:28:05.513Z,14.70
2023-03-06T20:31:13.711Z,14.77
2023-03-06T20:34:15.852Z,14.10
2023-03-06T20:37:17.558Z,14.73
2023-03-06T20:40:19.421Z,13.67
2023-03-06T20:43:21.233Z,14.57
2023-03-06T20:46:23.383Z,14.57
2023-03-06T20:49:27.151Z,14.93
2023-03-06T20:52:29.100Z,13.23
2023-03-06T20:55:30.795Z,13.40
2023-03-06T20:58:32.880Z,12.70
2023-03-06T21:01:40.245Z,14.27
2023-03-06T21:04:42.108Z,12.80
2023-03-06T21:07:43.841Z,14.20
2023-03-06T21:10:46.649Z,13.67
2023-03-06T21:13:49.336Z,13.73
2023-03-06T21:16:51.028Z,14.83
2023-03-06T21:19:52.798Z,14.37
2023-03-06T21:22:54.740Z,15.40
2023-03-06T21:25:56.408Z,14.10
2023-03-06T21:28:58.935Z,14.60
2023-03-06T21:32:01.743Z,13.30
2023-03-06T21:35:03.555Z,13.23
2023-03-06T21:38:05.542Z,12.60
2023-03-06T21:41:12.650Z,13.50
2023-03-06T21:44:14.433Z,14.13
2023-03-06T21:47:16.118Z,13.90
2023-03-06T21:50:18.084Z,12.63
2023-03-06T21:53:19.684Z,12.37
2023-03-06T21:56:23.274Z,13.47
2023-03-06T21:59:24.972Z,13.23
2023-03-06T22:02:26.749Z,13.30
2023-03-06T22:05:28.461Z,14.13
2023-03-06T22:08:30.111Z,13.37
2023-03-06T22:11:34.238Z,13.70
2023-03-06T22:14:36.258Z,14.10
2023-03-06T22:17:39.700Z,14.10
2023-03-06T22:20:42.425Z,15.00
2023-03-06T22:23:44.415Z,14.17
2023-03-06T22:26:46.160Z,14.97
2023-03-06T22:29:47.875Z,15.13
2023-03-06T22:32:51.946Z,16.97
2023-03-06T22:35:58.828Z,18.20
2023-03-06T22:39:02.220Z,16.07
2023-03-06T22:42:04.247Z,16.50
2023-03-06T22:45:06.386Z,17.20
2023-03-06T22:48:11.037Z,17.40
2023-03-06T22:51:18.677Z,16.70
2023-03-06T22:54:20.469Z,17.77
2023-03-06T22:57:22.284Z,16.50
2023-03-06T23:00:24.722Z,16.97
2023-03-06T23:03:26.414Z,16.97
2023-03-06T23:06:34.597Z,17.20
2023-03-06T23:09:36.270Z,17.73
2023-03-06T23:12:38.055Z,15.53
2023-03-06T23:15:39.755Z,17.27
2023-03-06T23:18:41.910Z,17.03
2023-03-06T23:21:43.586Z,15.47
2023-03-06T23:24:45.405Z,16.30
2023-03-06T23:27:47.147Z,15.93
2023-03-06T23:30:48.829Z,16.43
2023-03-06T23:33:50.732Z,17.37
2023-03-06T23:36:52.425Z,17.23
2023-03-06T23:39:54.139Z,17.37
2023-03-06T23:42:55.879Z,15.83
2023-03-06T23:45:58.148Z,17.53
2023-03-06T23:49:00.061Z,17.73
2023-03-06T23:52:01.923Z,17.40
2023-03-06T23:55:04.117Z,17.40
2023-03-06T23:58:05.809Z,17.53
